sensor_id;sensor_type;location;lat;lon;timestamp;temperature;humidity
15717;DHT22;7960;50.908;4.204;2022-08-01T00:01:32;20.70;99.90
15717;DHT22;7960;50.908;4.204;2022-08-01T00:03:59;20.70;99.90
15717;DHT22;7960;50.908;4.204;2022-08-01T00:06:27;20.80;99.90
15717;DHT22;7960;50.908;4.204;2022-08-01T00:08:54;20.70;99.90
15717;DHT22;7960;50.908;4.204;2022-08-01T00:11:21;20.70;99.90
15717;DHT22;7960;50.908;4.204;2022-08-01T00:13:48;20.70;99.90
15717;DHT22;7960;50.908;4.204;2022-08-01T00:16:15;20.70;99.90
15717;DHT22;7960;50.908;4.204;2022-08-01T00:18:42;20.60;99.90
15717;DHT22;7960;50.908;4.204;2022-08-01T00:21:09;20.60;99.90
15717;DHT22;7960;50.908;4.204;2022-08-01T00:23:37;20.50;99.90
15717;DHT22;7960;50.908;4.204;2022-08-01T00:26:04;20.50;99.90
15717;DHT22;7960;50.908;4.204;2022-08-01T00:28:30;20.40;99.90
15717;DHT22;7960;50.908;4.204;2022-08-01T00:30:57;20.30;99.90
15717;DHT22;7960;50.908;4.204;2022-08-01T00:33:24;20.30;99.90
15717;DHT22;7960;50.908;4.204;2022-08-01T00:35:51;20.30;99.90
15717;DHT22;7960;50.908;4.204;2022-08-01T00:38:18;20.30;99.90
15717;DHT22;7960;50.908;4.204;2022-08-01T00:40:46;20.40;99.90
15717;DHT22;7960;50.908;4.204;2022-08-01T00:43:13;20.40;99.90
15717;DHT22;7960;50.908;4.204;2022-08-01T00:45:40;20.30;99.90
15717;DHT22;7960;50.908;4.204;2022-08-01T00:48:07;20.30;99.90
15717;DHT22;7960;50.908;4.204;2022-08-01T00:50:34;20.20;99.90
15717;DHT22;7960;50.908;4.204;2022-08-01T00:53:01;20.30;99.90
15717;DHT22;7960;50.908;4.204;2022-08-01T00:55:28;20.30;99.90
15717;DHT22;7960;50.908;4.204;2022-08-01T00:57:58;20.20;99.90
15717;DHT22;7960;50.908;4.204;2022-08-01T01:00:26;20.30;99.90
15717;DHT22;7960;50.908;4.204;2022-08-01T01:02:53;20.30;99.90
15717;DHT22;7960;50.908;4.204;2022-08-01T01:05:19;20.20;99.90
15717;DHT22;7960;50.908;4.204;2022-08-01T01:07:50;20.20;99.90
15717;DHT22;7960;50.908;4.204;2022-08-01T01:10:24;20.20;99.90
15717;DHT22;7960;50.908;4.204;2022-08-01T01:12:59;20.20;99.90
15717;DHT22;7960;50.908;4.204;2022-08-01T01:15:32;20.20;99.90
15717;DHT22;7960;50.908;4.204;2022-08-01T01:18:03;20.00;99.90
15717;DHT22;7960;50.908;4.204;2022-08-01T01:20:33;20.10;99.90
15717;DHT22;7960;50.908;4.204;2022-08-01T01:23:15;20.00;99.90
15717;DHT22;7960;50.908;4.204;2022-08-01T01:26:04;20.10;99.90
15717;DHT22;7960;50.908;4.204;2022-08-01T01:31:11;20.00;99.90
15717;DHT22;7960;50.908;4.204;2022-08-01T01:33:40;20.00;99.90
15717;DHT22;7960;50.908;4.204;2022-08-01T01:36:09;20.00;99.90
15717;DHT22;7960;50.908;4.204;2022-08-01T01:38:40;20.10;99.90
15717;DHT22;7960;50.908;4.204;2022-08-01T01:41:10;20.10;99.90
15717;DHT22;7960;50.908;4.204;2022-08-01T01:43:37;20.10;99.90
15717;DHT22;7960;50.908;4.204;2022-08-01T01:46:06;20.10;99.90
15717;DHT22;7960;50.908;4.204;2022-08-01T01:48:36;20.20;99.90
15717;DHT22;7960;50.908;4.204;2022-08-01T01:51:04;20.20;99.90
15717;DHT22;7960;50.908;4.204;2022-08-01T01:53:33;20.20;99.90
15717;DHT22;7960;50.908;4.204;2022-08-01T01:56:02;20.00;99.90
15717;DHT22;7960;50.908;4.204;2022-08-01T01:58:31;19.90;99.90
15717;DHT22;7960;50.908;4.204;2022-08-01T02:01:00;19.90;99.90
15717;DHT22;7960;50.908;4.204;2022-08-01T02:03:28;19.90;99.90
15717;DHT22;7960;50.908;4.204;2022-08-01T02:05:59;19.90;99.90
15717;DHT22;7960;50.908;4.204;2022-08-01T02:08:29;20.10;99.90
15717;DHT22;7960;50.908;4.204;2022-08-01T02:10:58;20.10;99.90
15717;DHT22;7960;50.908;4.204;2022-08-01T02:13:43;20.10;99.90
15717;DHT22;7960;50.908;4.204;2022-08-01T02:16:11;19.90;99.90
15717;DHT22;7960;50.908;4.204;2022-08-01T02:18:39;19.90;99.90
15717;DHT22;7960;50.908;4.204;2022-08-01T02:21:12;19.90;99.90
15717;DHT22;7960;50.908;4.204;2022-08-01T02:23:40;19.90;99.90
15717;DHT22;7960;50.908;4.204;2022-08-01T02:26:10;20.00;99.90
15717;DHT22;7960;50.908;4.204;2022-08-01T02:28:43;20.00;99.90
15717;DHT22;7960;50.908;4.204;2022-08-01T02:31:13;19.90;99.90
15717;DHT22;7960;50.908;4.204;2022-08-01T02:33:44;20.00;99.90
15717;DHT22;7960;50.908;4.204;2022-08-01T02:36:15;20.10;99.90
15717;DHT22;7960;50.908;4.204;2022-08-01T02:38:44;20.00;99.90
15717;DHT22;7960;50.908;4.204;2022-08-01T02:41:15;20.10;99.90
15717;DHT22;7960;50.908;4.204;2022-08-01T02:43:46;19.90;99.90
15717;DHT22;7960;50.908;4.204;2022-08-01T02:46:17;19.90;99.90
15717;DHT22;7960;50.908;4.204;2022-08-01T02:48:47;20.00;99.90
15717;DHT22;7960;50.908;4.204;2022-08-01T02:51:19;19.90;99.90
15717;DHT22;7960;50.908;4.204;2022-08-01T02:53:48;20.10;99.90
15717;DHT22;7960;50.908;4.204;2022-08-01T02:56:17;20.10;99.90
15717;DHT22;7960;50.908;4.204;2022-08-01T02:58:46;20.20;99.90
15717;DHT22;7960;50.908;4.204;2022-08-01T03:01:14;20.10;99.90
15717;DHT22;7960;50.908;4.204;2022-08-01T03:03:41;20.10;99.90
15717;DHT22;7960;50.908;4.204;2022-08-01T03:06:09;20.10;99.90
15717;DHT22;7960;50.908;4.204;2022-08-01T03:08:39;20.20;99.90
15717;DHT22;7960;50.908;4.204;2022-08-01T03:11:07;20.10;99.90
15717;DHT22;7960;50.908;4.204;2022-08-01T03:13:35;20.00;99.90
15717;DHT22;7960;50.908;4.204;2022-08-01T03:16:04;20.00;99.90
15717;DHT22;7960;50.908;4.204;2022-08-01T03:18:32;19.90;99.90
15717;DHT22;7960;50.908;4.204;2022-08-01T03:21:00;19.80;99.90
15717;DHT22;7960;50.908;4.204;2022-08-01T03:23:28;19.60;99.90
15717;DHT22;7960;50.908;4.204;2022-08-01T03:25:57;19.80;99.90
15717;DHT22;7960;50.908;4.204;2022-08-01T03:28:25;19.90;99.90
15717;DHT22;7960;50.908;4.204;2022-08-01T03:30:53;19.80;99.90
15717;DHT22;7960;50.908;4.204;2022-08-01T03:33:20;19.70;99.90
15717;DHT22;7960;50.908;4.204;2022-08-01T03:35:49;19.60;99.90
15717;DHT22;7960;50.908;4.204;2022-08-01T03:38:19;19.50;99.90
15717;DHT22;7960;50.908;4.204;2022-08-01T03:40:51;19.60;99.90
15717;DHT22;7960;50.908;4.204;2022-08-01T03:43:24;19.70;99.90
15717;DHT22;7960;50.908;4.204;2022-08-01T03:45:53;19.70;99.90
15717;DHT22;7960;50.908;4.204;2022-08-01T03:48:28;19.70;99.90
15717;DHT22;7960;50.908;4.204;2022-08-01T03:50:58;19.70;99.90
15717;DHT22;7960;50.908;4.204;2022-08-01T03:53:28;19.80;99.90
15717;DHT22;7960;50.908;4.204;2022-08-01T03:55:58;19.90;99.90
15717;DHT22;7960;50.908;4.204;2022-08-01T03:58:28;19.80;99.90
15717;DHT22;7960;50.908;4.204;2022-08-01T04:00:56;19.80;99.90
15717;DHT22;7960;50.908;4.204;2022-08-01T04:03:24;19.70;99.90
15717;DHT22;7960;50.908;4.204;2022-08-01T04:05:51;19.80;99.90
15717;DHT22;7960;50.908;4.204;2022-08-01T04:08:18;19.90;99.90
15717;DHT22;7960;50.908;4.204;2022-08-01T04:10:44;19.70;99.90
15717;DHT22;7960;50.908;4.204;2022-08-01T04:13:11;19.70;99.90
15717;DHT22;7960;50.908;4.204;2022-08-01T04:15:39;19.70;99.90
15717;DHT22;7960;50.908;4.204;2022-08-01T04:18:06;19.60;99.90
15717;DHT22;7960;50.908;4.204;2022-08-01T04:20:33;19.60;99.90
15717;DHT22;7960;50.908;4.204;2022-08-01T04:23:00;19.70;99.90
15717;DHT22;7960;50.908;4.204;2022-08-01T04:25:31;19.80;99.90
15717;DHT22;7960;50.908;4.204;2022-08-01T04:28:01;19.80;99.90
15717;DHT22;7960;50.908;4.204;2022-08-01T04:30:31;19.70;99.90
15717;DHT22;7960;50.908;4.204;2022-08-01T04:33:04;19.70;99.90
15717;DHT22;7960;50.908;4.204;2022-08-01T04:35:34;19.70;99.90
15717;DHT22;7960;50.908;4.204;2022-08-01T04:38:03;19.60;99.90
15717;DHT22;7960;50.908;4.204;2022-08-01T04:40:31;19.70;99.90
15717;DHT22;7960;50.908;4.204;2022-08-01T04:42:58;19.60;99.90
15717;DHT22;7960;50.908;4.204;2022-08-01T04:45:26;19.80;99.90
15717;DHT22;7960;50.908;4.204;2022-08-01T04:47:54;19.70;99.90
15717;DHT22;7960;50.908;4.204;2022-08-01T04:50:22;19.70;99.90
15717;DHT22;7960;50.908;4.204;2022-08-01T04:52:49;19.70;99.90
15717;DHT22;7960;50.908;4.204;2022-08-01T04:55:17;19.80;99.90
15717;DHT22;7960;50.908;4.204;2022-08-01T04:57:45;19.90;99.90
15717;DHT22;7960;50.908;4.204;2022-08-01T05:00:14;19.70;99.90
15717;DHT22;7960;50.908;4.204;2022-08-01T05:02:42;19.60;99.90
15717;DHT22;7960;50.908;4.204;2022-08-01T05:05:09;19.70;99.90
15717;DHT22;7960;50.908;4.204;2022-08-01T05:07:41;19.80;99.90
15717;DHT22;7960;50.908;4.204;2022-08-01T05:10:09;19.60;99.90
15717;DHT22;7960;50.908;4.204;2022-08-01T05:12:35;19.60;99.90
15717;DHT22;7960;50.908;4.204;2022-08-01T05:15:03;19.70;99.90
15717;DHT22;7960;50.908;4.204;2022-08-01T05:17:30;19.70;99.90
15717;DHT22;7960;50.908;4.204;2022-08-01T05:19:57;19.70;99.90
15717;DHT22;7960;50.908;4.204;2022-08-01T05:22:23;19.70;99.90
15717;DHT22;7960;50.908;4.204;2022-08-01T05:24:52;19.70;99.90
15717;DHT22;7960;50.908;4.204;2022-08-01T05:27:19;19.70;99.90
15717;DHT22;7960;50.908;4.204;2022-08-01T05:29:46;19.70;99.90
15717;DHT22;7960;50.908;4.204;2022-08-01T05:32:12;19.80;99.90
15717;DHT22;7960;50.908;4.204;2022-08-01T05:34:39;19.80;99.90
15717;DHT22;7960;50.908;4.204;2022-08-01T05:37:06;19.80;99.90
15717;DHT22;7960;50.908;4.204;2022-08-01T05:39:33;19.90;99.90
15717;DHT22;7960;50.908;4.204;2022-08-01T05:42:02;20.00;99.90
15717;DHT22;7960;50.908;4.204;2022-08-01T05:44:29;20.00;99.90
15717;DHT22;7960;50.908;4.204;2022-08-01T05:46:56;19.90;99.90
15717;DHT22;7960;50.908;4.204;2022-08-01T05:49:22;20.00;99.90
15717;DHT22;7960;50.908;4.204;2022-08-01T05:51:49;20.00;99.90
15717;DHT22;7960;50.908;4.204;2022-08-01T05:54:16;20.00;99.90
15717;DHT22;7960;50.908;4.204;2022-08-01T05:56:43;20.10;99.90
15717;DHT22;7960;50.908;4.204;2022-08-01T05:59:11;20.00;99.90
15717;DHT22;7960;50.908;4.204;2022-08-01T06:01:38;20.00;99.90
15717;DHT22;7960;50.908;4.204;2022-08-01T06:04:05;19.90;99.90
15717;DHT22;7960;50.908;4.204;2022-08-01T06:06:32;19.80;99.90
15717;DHT22;7960;50.908;4.204;2022-08-01T06:08:59;19.90;99.90
15717;DHT22;7960;50.908;4.204;2022-08-01T06:11:25;20.00;99.90
15717;DHT22;7960;50.908;4.204;2022-08-01T06:13:52;20.10;99.90
15717;DHT22;7960;50.908;4.204;2022-08-01T06:16:20;20.00;99.90
15717;DHT22;7960;50.908;4.204;2022-08-01T06:18:47;19.90;99.90
15717;DHT22;7960;50.908;4.204;2022-08-01T06:21:14;20.10;99.90
15717;DHT22;7960;50.908;4.204;2022-08-01T06:23:41;20.20;99.90
15717;DHT22;7960;50.908;4.204;2022-08-01T06:26:08;20.30;99.90
15717;DHT22;7960;50.908;4.204;2022-08-01T06:28:35;20.30;99.90
15717;DHT22;7960;50.908;4.204;2022-08-01T06:31:02;20.30;99.90
15717;DHT22;7960;50.908;4.204;2022-08-01T06:33:30;20.30;99.90
15717;DHT22;7960;50.908;4.204;2022-08-01T06:35:57;20.40;99.90
15717;DHT22;7960;50.908;4.204;2022-08-01T06:38:24;20.60;99.90
15717;DHT22;7960;50.908;4.204;2022-08-01T06:40:51;20.60;99.90
15717;DHT22;7960;50.908;4.204;2022-08-01T06:43:18;20.70;99.90
15717;DHT22;7960;50.908;4.204;2022-08-01T06:45:45;20.70;99.90
15717;DHT22;7960;50.908;4.204;2022-08-01T06:48:12;20.70;99.90
15717;DHT22;7960;50.908;4.204;2022-08-01T06:50:40;20.70;99.90
15717;DHT22;7960;50.908;4.204;2022-08-01T06:53:07;20.70;99.90
15717;DHT22;7960;50.908;4.204;2022-08-01T06:55:34;20.80;99.90
15717;DHT22;7960;50.908;4.204;2022-08-01T06:58:01;20.80;99.90
15717;DHT22;7960;50.908;4.204;2022-08-01T07:00:27;20.70;99.90
15717;DHT22;7960;50.908;4.204;2022-08-01T07:02:56;20.70;99.90
15717;DHT22;7960;50.908;4.204;2022-08-01T07:05:24;20.70;99.90
15717;DHT22;7960;50.908;4.204;2022-08-01T07:07:52;20.70;99.90
15717;DHT22;7960;50.908;4.204;2022-08-01T07:10:19;20.90;99.90
15717;DHT22;7960;50.908;4.204;2022-08-01T07:12:46;20.90;99.90
15717;DHT22;7960;50.908;4.204;2022-08-01T07:15:13;21.00;99.90
15717;DHT22;7960;50.908;4.204;2022-08-01T07:17:42;21.10;99.90
15717;DHT22;7960;50.908;4.204;2022-08-01T07:20:10;21.00;99.90
15717;DHT22;7960;50.908;4.204;2022-08-01T07:22:38;20.90;99.90
15717;DHT22;7960;50.908;4.204;2022-08-01T07:25:07;20.90;99.90
15717;DHT22;7960;50.908;4.204;2022-08-01T07:27:34;20.90;99.90
15717;DHT22;7960;50.908;4.204;2022-08-01T07:30:02;20.90;99.90
15717;DHT22;7960;50.908;4.204;2022-08-01T07:32:29;21.00;99.90
15717;DHT22;7960;50.908;4.204;2022-08-01T07:34:56;21.00;99.90
15717;DHT22;7960;50.908;4.204;2022-08-01T07:37:23;21.00;99.90
15717;DHT22;7960;50.908;4.204;2022-08-01T07:39:50;21.20;99.90
15717;DHT22;7960;50.908;4.204;2022-08-01T07:42:18;21.20;99.90
15717;DHT22;7960;50.908;4.204;2022-08-01T07:44:45;21.20;99.90
15717;DHT22;7960;50.908;4.204;2022-08-01T07:47:12;21.30;99.90
15717;DHT22;7960;50.908;4.204;2022-08-01T07:49:38;21.30;99.90
15717;DHT22;7960;50.908;4.204;2022-08-01T07:52:05;21.30;99.90
15717;DHT22;7960;50.908;4.204;2022-08-01T07:54:32;21.30;99.90
15717;DHT22;7960;50.908;4.204;2022-08-01T07:56:59;21.10;99.90
15717;DHT22;7960;50.908;4.204;2022-08-01T07:59:28;21.20;99.90
15717;DHT22;7960;50.908;4.204;2022-08-01T08:01:57;21.20;99.90
15717;DHT22;7960;50.908;4.204;2022-08-01T08:04:24;21.30;99.90
15717;DHT22;7960;50.908;4.204;2022-08-01T08:06:51;21.40;99.90
15717;DHT22;7960;50.908;4.204;2022-08-01T08:09:19;21.50;99.90
15717;DHT22;7960;50.908;4.204;2022-08-01T08:11:46;21.60;99.90
15717;DHT22;7960;50.908;4.204;2022-08-01T08:14:13;21.60;99.90
15717;DHT22;7960;50.908;4.204;2022-08-01T08:16:42;21.80;99.90
15717;DHT22;7960;50.908;4.204;2022-08-01T08:19:09;22.10;99.90
15717;DHT22;7960;50.908;4.204;2022-08-01T08:21:36;22.10;99.90
15717;DHT22;7960;50.908;4.204;2022-08-01T08:24:03;22.00;99.90
15717;DHT22;7960;50.908;4.204;2022-08-01T08:26:51;22.10;99.90
15717;DHT22;7960;50.908;4.204;2022-08-01T08:29:19;22.10;99.90
15717;DHT22;7960;50.908;4.204;2022-08-01T08:31:48;22.00;99.90
15717;DHT22;7960;50.908;4.204;2022-08-01T08:34:16;22.00;99.90
15717;DHT22;7960;50.908;4.204;2022-08-01T08:36:43;21.90;99.90
15717;DHT22;7960;50.908;4.204;2022-08-01T08:39:10;21.90;99.90
15717;DHT22;7960;50.908;4.204;2022-08-01T08:41:37;21.80;99.90
15717;DHT22;7960;50.908;4.204;2022-08-01T08:44:05;21.80;99.90
15717;DHT22;7960;50.908;4.204;2022-08-01T08:46:33;21.90;99.90
15717;DHT22;7960;50.908;4.204;2022-08-01T08:49:02;21.90;99.90
15717;DHT22;7960;50.908;4.204;2022-08-01T08:51:31;22.10;99.90
15717;DHT22;7960;50.908;4.204;2022-08-01T08:54:03;22.30;99.90
15717;DHT22;7960;50.908;4.204;2022-08-01T08:56:31;22.40;99.90
15717;DHT22;7960;50.908;4.204;2022-08-01T08:59:00;22.40;99.90
15717;DHT22;7960;50.908;4.204;2022-08-01T09:01:27;22.50;99.90
15717;DHT22;7960;50.908;4.204;2022-08-01T09:03:54;22.70;99.90
15717;DHT22;7960;50.908;4.204;2022-08-01T09:06:23;22.50;99.90
15717;DHT22;7960;50.908;4.204;2022-08-01T09:08:50;22.50;99.90
15717;DHT22;7960;50.908;4.204;2022-08-01T09:11:17;22.40;99.90
15717;DHT22;7960;50.908;4.204;2022-08-01T09:14:01;22.60;99.90
15717;DHT22;7960;50.908;4.204;2022-08-01T09:16:28;22.80;99.90
15717;DHT22;7960;50.908;4.204;2022-08-01T09:19:07;23.00;99.90
15717;DHT22;7960;50.908;4.204;2022-08-01T09:21:35;22.70;99.90
15717;DHT22;7960;50.908;4.204;2022-08-01T09:24:03;22.70;99.90
15717;DHT22;7960;50.908;4.204;2022-08-01T09:26:32;22.70;99.90
15717;DHT22;7960;50.908;4.204;2022-08-01T09:29:03;22.80;99.90
15717;DHT22;7960;50.908;4.204;2022-08-01T09:31:39;22.80;99.90
15717;DHT22;7960;50.908;4.204;2022-08-01T09:34:07;22.70;99.90
15717;DHT22;7960;50.908;4.204;2022-08-01T09:36:47;22.80;99.90
15717;DHT22;7960;50.908;4.204;2022-08-01T09:39:17;23.20;99.90
15717;DHT22;7960;50.908;4.204;2022-08-01T09:41:45;23.30;99.90
15717;DHT22;7960;50.908;4.204;2022-08-01T09:44:13;23.30;99.90
15717;DHT22;7960;50.908;4.204;2022-08-01T09:46:51;23.70;99.90
15717;DHT22;7960;50.908;4.204;2022-08-01T09:49:28;24.00;99.90
15717;DHT22;7960;50.908;4.204;2022-08-01T09:51:57;24.00;99.90
15717;DHT22;7960;50.908;4.204;2022-08-01T09:54:32;23.90;99.90
15717;DHT22;7960;50.908;4.204;2022-08-01T09:57:10;24.00;99.90
15717;DHT22;7960;50.908;4.204;2022-08-01T09:59:38;23.90;99.90
15717;DHT22;7960;50.908;4.204;2022-08-01T10:02:08;23.80;99.90
15717;DHT22;7960;50.908;4.204;2022-08-01T10:04:36;24.00;99.90
15717;DHT22;7960;50.908;4.204;2022-08-01T10:07:06;23.90;99.90
15717;DHT22;7960;50.908;4.204;2022-08-01T10:09:35;24.10;99.90
15717;DHT22;7960;50.908;4.204;2022-08-01T10:12:03;24.50;99.90
15717;DHT22;7960;50.908;4.204;2022-08-01T10:14:30;24.50;99.90
15717;DHT22;7960;50.908;4.204;2022-08-01T10:16:59;24.70;99.90
15717;DHT22;7960;50.908;4.204;2022-08-01T10:19:28;24.30;99.90
15717;DHT22;7960;50.908;4.204;2022-08-01T10:21:56;24.30;99.90
15717;DHT22;7960;50.908;4.204;2022-08-01T10:24:27;24.30;99.90
15717;DHT22;7960;50.908;4.204;2022-08-01T10:26:57;24.20;99.90
15717;DHT22;7960;50.908;4.204;2022-08-01T10:29:34;24.50;99.90
15717;DHT22;7960;50.908;4.204;2022-08-01T10:32:03;24.50;99.90
15717;DHT22;7960;50.908;4.204;2022-08-01T10:34:31;24.30;99.90
15717;DHT22;7960;50.908;4.204;2022-08-01T10:37:00;24.50;99.90
15717;DHT22;7960;50.908;4.204;2022-08-01T10:39:29;24.40;99.90
15717;DHT22;7960;50.908;4.204;2022-08-01T10:41:56;24.50;99.90
15717;DHT22;7960;50.908;4.204;2022-08-01T10:44:24;24.40;99.90
15717;DHT22;7960;50.908;4.204;2022-08-01T10:46:55;24.50;99.90
15717;DHT22;7960;50.908;4.204;2022-08-01T10:49:26;24.50;99.90
15717;DHT22;7960;50.908;4.204;2022-08-01T10:51:54;24.50;99.90
15717;DHT22;7960;50.908;4.204;2022-08-01T10:54:24;24.70;99.90
15717;DHT22;7960;50.908;4.204;2022-08-01T10:56:53;24.60;99.90
15717;DHT22;7960;50.908;4.204;2022-08-01T10:59:23;24.50;99.90
15717;DHT22;7960;50.908;4.204;2022-08-01T11:01:58;24.50;99.90
15717;DHT22;7960;50.908;4.204;2022-08-01T11:04:44;24.50;99.90
15717;DHT22;7960;50.908;4.204;2022-08-01T11:07:16;24.30;99.90
15717;DHT22;7960;50.908;4.204;2022-08-01T11:09:46;24.30;99.90
15717;DHT22;7960;50.908;4.204;2022-08-01T11:12:16;24.40;99.90
15717;DHT22;7960;50.908;4.204;2022-08-01T11:15:22;24.90;99.90
15717;DHT22;7960;50.908;4.204;2022-08-01T11:17:53;24.70;99.90
15717;DHT22;7960;50.908;4.204;2022-08-01T11:20:21;24.80;99.90
15717;DHT22;7960;50.908;4.204;2022-08-01T11:23:16;25.20;99.90
15717;DHT22;7960;50.908;4.204;2022-08-01T11:26:11;25.60;99.90
15717;DHT22;7960;50.908;4.204;2022-08-01T11:28:41;25.80;99.90
15717;DHT22;7960;50.908;4.204;2022-08-01T11:31:30;25.60;99.90
15717;DHT22;7960;50.908;4.204;2022-08-01T11:33:59;25.50;99.90
15717;DHT22;7960;50.908;4.204;2022-08-01T11:36:26;25.90;99.90
15717;DHT22;7960;50.908;4.204;2022-08-01T11:39:13;26.20;99.90
15717;DHT22;7960;50.908;4.204;2022-08-01T11:41:42;25.90;99.90
15717;DHT22;7960;50.908;4.204;2022-08-01T11:44:12;25.90;99.90
15717;DHT22;7960;50.908;4.204;2022-08-01T11:46:55;26.00;99.90
15717;DHT22;7960;50.908;4.204;2022-08-01T11:49:27;26.20;99.90
15717;DHT22;7960;50.908;4.204;2022-08-01T11:51:58;26.20;99.90
15717;DHT22;7960;50.908;4.204;2022-08-01T11:54:27;26.30;99.90
15717;DHT22;7960;50.908;4.204;2022-08-01T11:56:55;25.90;99.90
15717;DHT22;7960;50.908;4.204;2022-08-01T11:59:24;26.20;99.90
15717;DHT22;7960;50.908;4.204;2022-08-01T12:01:51;26.50;99.90
15717;DHT22;7960;50.908;4.204;2022-08-01T12:04:18;26.90;99.90
15717;DHT22;7960;50.908;4.204;2022-08-01T12:06:46;27.10;99.90
15717;DHT22;7960;50.908;4.204;2022-08-01T12:09:17;27.10;99.90
15717;DHT22;7960;50.908;4.204;2022-08-01T12:11:44;26.90;99.90
15717;DHT22;7960;50.908;4.204;2022-08-01T12:14:16;27.00;99.90
15717;DHT22;7960;50.908;4.204;2022-08-01T12:16:51;26.80;99.90
15717;DHT22;7960;50.908;4.204;2022-08-01T12:19:20;26.60;99.90
15717;DHT22;7960;50.908;4.204;2022-08-01T12:22:05;26.60;99.90
15717;DHT22;7960;50.908;4.204;2022-08-01T12:24:33;26.90;99.90
15717;DHT22;7960;50.908;4.204;2022-08-01T12:27:00;26.60;99.90
15717;DHT22;7960;50.908;4.204;2022-08-01T12:29:37;26.70;99.90
15717;DHT22;7960;50.908;4.204;2022-08-01T12:32:21;26.40;99.90
15717;DHT22;7960;50.908;4.204;2022-08-01T12:34:48;26.50;99.90
15717;DHT22;7960;50.908;4.204;2022-08-01T12:37:16;26.70;99.90
15717;DHT22;7960;50.908;4.204;2022-08-01T12:39:45;26.80;99.90
15717;DHT22;7960;50.908;4.204;2022-08-01T12:42:12;26.90;99.90
15717;DHT22;7960;50.908;4.204;2022-08-01T12:44:40;27.40;99.90
15717;DHT22;7960;50.908;4.204;2022-08-01T12:47:10;27.70;99.90
15717;DHT22;7960;50.908;4.204;2022-08-01T12:49:38;27.60;99.90
15717;DHT22;7960;50.908;4.204;2022-08-01T12:52:07;28.30;99.90
15717;DHT22;7960;50.908;4.204;2022-08-01T12:55:01;28.40;99.90
15717;DHT22;7960;50.908;4.204;2022-08-01T12:57:28;28.40;99.90
15717;DHT22;7960;50.908;4.204;2022-08-01T13:00:06;28.30;99.90
15717;DHT22;7960;50.908;4.204;2022-08-01T13:02:36;27.90;99.90
15717;DHT22;7960;50.908;4.204;2022-08-01T13:05:03;28.10;99.90
15717;DHT22;7960;50.908;4.204;2022-08-01T13:07:39;27.90;99.90
15717;DHT22;7960;50.908;4.204;2022-08-01T13:10:08;27.00;99.90
15717;DHT22;7960;50.908;4.204;2022-08-01T13:12:38;26.90;99.90
15717;DHT22;7960;50.908;4.204;2022-08-01T13:15:27;27.50;99.90
15717;DHT22;7960;50.908;4.204;2022-08-01T13:17:58;27.90;99.90
15717;DHT22;7960;50.908;4.204;2022-08-01T13:20:28;28.30;99.90
15717;DHT22;7960;50.908;4.204;2022-08-01T13:23:14;29.00;99.90
15717;DHT22;7960;50.908;4.204;2022-08-01T13:25:48;28.80;99.90
15717;DHT22;7960;50.908;4.204;2022-08-01T13:28:17;28.20;99.90
15717;DHT22;7960;50.908;4.204;2022-08-01T13:30:58;27.60;99.90
15717;DHT22;7960;50.908;4.204;2022-08-01T13:33:28;27.00;99.90
15717;DHT22;7960;50.908;4.204;2022-08-01T13:35:56;27.00;99.90
15717;DHT22;7960;50.908;4.204;2022-08-01T13:38:23;27.40;99.90
15717;DHT22;7960;50.908;4.204;2022-08-01T13:41:04;27.80;99.90
15717;DHT22;7960;50.908;4.204;2022-08-01T13:43:31;28.30;99.90
15717;DHT22;7960;50.908;4.204;2022-08-01T13:45:58;28.50;99.90
15717;DHT22;7960;50.908;4.204;2022-08-01T13:48:26;28.30;99.90
15717;DHT22;7960;50.908;4.204;2022-08-01T13:50:53;28.30;99.90
15717;DHT22;7960;50.908;4.204;2022-08-01T13:53:20;28.60;99.90
15717;DHT22;7960;50.908;4.204;2022-08-01T13:55:47;28.80;99.90
15717;DHT22;7960;50.908;4.204;2022-08-01T13:58:14;29.50;99.90
15717;DHT22;7960;50.908;4.204;2022-08-01T14:00:41;29.10;99.90
15717;DHT22;7960;50.908;4.204;2022-08-01T14:03:08;29.80;99.90
15717;DHT22;7960;50.908;4.204;2022-08-01T14:05:37;30.60;99.90
15717;DHT22;7960;50.908;4.204;2022-08-01T14:08:05;31.00;99.50
15717;DHT22;7960;50.908;4.204;2022-08-01T14:10:32;31.20;99.00
15717;DHT22;7960;50.908;4.204;2022-08-01T14:12:59;30.00;98.50
15717;DHT22;7960;50.908;4.204;2022-08-01T14:15:26;29.50;99.90
15717;DHT22;7960;50.908;4.204;2022-08-01T14:17:53;29.70;99.90
15717;DHT22;7960;50.908;4.204;2022-08-01T14:20:20;29.50;99.60
15717;DHT22;7960;50.908;4.204;2022-08-01T14:22:48;28.50;99.90
15717;DHT22;7960;50.908;4.204;2022-08-01T14:25:15;27.80;99.90
15717;DHT22;7960;50.908;4.204;2022-08-01T14:27:43;28.10;99.90
15717;DHT22;7960;50.908;4.204;2022-08-01T14:30:12;27.90;99.90
15717;DHT22;7960;50.908;4.204;2022-08-01T14:32:39;28.20;99.90
15717;DHT22;7960;50.908;4.204;2022-08-01T14:35:07;28.20;99.90
15717;DHT22;7960;50.908;4.204;2022-08-01T14:37:34;28.70;99.90
15717;DHT22;7960;50.908;4.204;2022-08-01T14:40:04;29.10;99.20
15717;DHT22;7960;50.908;4.204;2022-08-01T14:42:34;29.30;98.40
15717;DHT22;7960;50.908;4.204;2022-08-01T14:45:02;30.10;98.50
15717;DHT22;7960;50.908;4.204;2022-08-01T14:47:29;29.90;91.20
15717;DHT22;7960;50.908;4.204;2022-08-01T14:49:56;29.80;90.50
15717;DHT22;7960;50.908;4.204;2022-08-01T14:52:24;29.30;90.70
15717;DHT22;7960;50.908;4.204;2022-08-01T14:54:54;30.20;91.00
15717;DHT22;7960;50.908;4.204;2022-08-01T14:57:22;30.70;90.00
15717;DHT22;7960;50.908;4.204;2022-08-01T14:59:49;30.40;89.50
15717;DHT22;7960;50.908;4.204;2022-08-01T15:02:16;30.00;88.80
15717;DHT22;7960;50.908;4.204;2022-08-01T15:04:44;29.70;89.20
15717;DHT22;7960;50.908;4.204;2022-08-01T15:07:11;30.20;89.70
15717;DHT22;7960;50.908;4.204;2022-08-01T15:09:38;29.90;90.10
15717;DHT22;7960;50.908;4.204;2022-08-01T15:12:06;29.70;90.00
15717;DHT22;7960;50.908;4.204;2022-08-01T15:14:35;29.40;89.00
15717;DHT22;7960;50.908;4.204;2022-08-01T15:17:14;29.20;90.10
15717;DHT22;7960;50.908;4.204;2022-08-01T15:19:41;28.80;90.80
15717;DHT22;7960;50.908;4.204;2022-08-01T15:22:09;28.90;90.60
15717;DHT22;7960;50.908;4.204;2022-08-01T15:24:36;28.30;90.80
15717;DHT22;7960;50.908;4.204;2022-08-01T15:27:03;27.90;91.30
15717;DHT22;7960;50.908;4.204;2022-08-01T15:29:30;27.90;92.20
15717;DHT22;7960;50.908;4.204;2022-08-01T15:31:58;27.80;92.10
15717;DHT22;7960;50.908;4.204;2022-08-01T15:34:26;28.20;91.70
15717;DHT22;7960;50.908;4.204;2022-08-01T15:36:54;28.80;90.90
15717;DHT22;7960;50.908;4.204;2022-08-01T15:39:21;28.80;90.70
15717;DHT22;7960;50.908;4.204;2022-08-01T15:41:49;29.20;90.60
15717;DHT22;7960;50.908;4.204;2022-08-01T15:44:17;29.40;90.40
15717;DHT22;7960;50.908;4.204;2022-08-01T15:46:45;29.60;89.80
15717;DHT22;7960;50.908;4.204;2022-08-01T15:49:14;29.60;89.10
15717;DHT22;7960;50.908;4.204;2022-08-01T15:51:42;29.90;87.70
15717;DHT22;7960;50.908;4.204;2022-08-01T15:54:10;30.00;86.60
15717;DHT22;7960;50.908;4.204;2022-08-01T15:56:37;30.60;85.70
15717;DHT22;7960;50.908;4.204;2022-08-01T15:59:04;30.50;85.70
15717;DHT22;7960;50.908;4.204;2022-08-01T16:01:32;30.10;85.20